createdAt,value
2023-05-04T00:00:13.493Z,622.00
2023-05-04T00:01:13.498Z,618.00
2023-05-04T00:02:13.554Z,622.00
2023-05-04T00:03:13.692Z,618.00
2023-05-04T00:04:13.683Z,624.00
2023-05-04T00:05:13.590Z,609.00
2023-05-04T00:06:13.591Z,613.00
2023-05-04T00:07:13.584Z,620.00
2023-05-04T00:08:13.656Z,613.00
2023-05-04T00:09:13.661Z,614.00
2023-05-04T00:10:13.679Z,611.00
2023-05-04T00:11:13.704Z,613.00
2023-05-04T00:12:13.744Z,608.00
2023-05-04T00:13:13.802Z,616.00
2023-05-04T00:14:13.798Z,609.00
2023-05-04T00:15:13.835Z,607.00
2023-05-04T00:16:13.904Z,610.00
2023-05-04T00:17:13.920Z,610.00
2023-05-04T00:18:13.935Z,611.00
2023-05-04T00:19:13.924Z,597.00
2023-05-04T00:20:13.985Z,603.00
2023-05-04T00:21:14.002Z,613.00
2023-05-04T00:22:14.107Z,608.00
2023-05-04T00:23:14.060Z,602.00
2023-05-04T00:24:14.105Z,604.00
2023-05-04T00:25:14.110Z,599.00
2023-05-04T00:26:14.149Z,597.00
2023-05-04T00:27:14.206Z,607.00
2023-05-04T00:28:14.201Z,603.00
2023-05-04T00:29:14.235Z,596.00
2023-05-04T00:30:14.280Z,598.00
2023-05-04T00:31:14.392Z,604.00
2023-05-04T00:32:14.333Z,605.00
2023-05-04T00:33:14.339Z,592.00
2023-05-04T00:34:14.377Z,607.00
2023-05-04T00:35:14.458Z,598.00
2023-05-04T00:36:14.452Z,603.00
2023-05-04T00:37:14.472Z,593.00
2023-05-04T00:38:14.504Z,598.00
2023-05-04T00:39:14.622Z,602.00
2023-05-04T00:40:14.550Z,595.00
2023-05-04T00:41:14.624Z,594.00
2023-05-04T00:42:14.662Z,596.00
2023-05-04T00:43:14.662Z,598.00
2023-05-04T00:44:14.688Z,606.00
2023-05-04T00:45:14.740Z,603.00
2023-05-04T00:46:14.785Z,602.00
2023-05-04T00:47:14.828Z,607.00
2023-05-04T00:48:15.016Z,613.00
2023-05-04T00:49:14.827Z,606.00
2023-05-04T00:50:14.907Z,617.00
2023-05-04T00:51:14.938Z,609.00
2023-05-04T00:52:14.975Z,613.00
2023-05-04T00:53:15.012Z,614.00
2023-05-04T00:54:15.021Z,617.00
2023-05-04T00:55:15.051Z,611.00
2023-05-04T00:56:15.088Z,609.00
2023-05-04T00:57:15.115Z,611.00
2023-05-04T00:58:15.161Z,621.00
2023-05-04T00:59:15.192Z,623.00
2023-05-04T01:00:15.184Z,611.00
2023-05-04T01:01:15.308Z,612.00
2023-05-04T01:02:15.294Z,613.00
2023-05-04T01:03:15.384Z,612.00
2023-05-04T01:04:15.398Z,615.00
2023-05-04T01:05:15.385Z,610.00
2023-05-04T01:06:15.425Z,615.00
2023-05-04T01:07:15.510Z,616.00
2023-05-04T01:08:15.492Z,617.00
2023-05-04T01:09:15.551Z,617.00
2023-05-04T01:10:15.594Z,610.00
2023-05-04T01:11:15.630Z,616.00
2023-05-04T01:12:15.673Z,614.00
2023-05-04T01:13:15.846Z,619.00
2023-05-04T01:14:15.746Z,613.00
2023-05-04T01:15:15.831Z,619.00
2023-05-04T01:16:15.872Z,616.00
2023-05-04T01:17:15.932Z,625.00
2023-05-04T01:18:15.928Z,618.00
2023-05-04T01:19:15.993Z,620.00
2023-05-04T01:20:16.008Z,624.00
2023-05-04T01:21:16.025Z,621.00
2023-05-04T01:22:16.085Z,622.00
2023-05-04T01:23:16.121Z,619.00
2023-05-04T01:24:16.166Z,621.00
2023-05-04T01:25:16.226Z,621.00
2023-05-04T01:26:16.272Z,617.00
2023-05-04T01:27:16.278Z,624.00
2023-05-04T01:28:16.350Z,620.00
2023-05-04T01:29:16.395Z,618.00
2023-05-04T01:30:16.441Z,621.00
2023-05-04T01:31:16.518Z,614.00
2023-05-04T01:32:16.533Z,621.00
2023-05-04T01:33:16.547Z,617.00
2023-05-04T01:34:16.601Z,623.00
2023-05-04T01:35:16.632Z,616.00
2023-05-04T01:36:16.689Z,615.00
2023-05-04T01:37:16.725Z,615.00
2023-05-04T01:38:16.786Z,625.00
2023-05-04T01:39:16.839Z,615.00
2023-05-04T01:40:16.873Z,620.00
2023-05-04T01:41:16.929Z,613.00
2023-05-04T01:42:16.989Z,622.00
2023-05-04T01:43:17.013Z,617.00
2023-05-04T01:44:17.044Z,621.00
2023-05-04T01:45:17.186Z,623.00
2023-05-04T01:46:17.182Z,616.00
2023-05-04T01:47:17.208Z,625.00
2023-05-04T01:48:17.238Z,614.00
2023-05-04T01:49:17.295Z,618.00
2023-05-04T01:50:17.347Z,618.00
2023-05-04T01:51:17.390Z,621.00
2023-05-04T01:52:17.449Z,614.00
2023-05-04T01:53:17.514Z,614.00
2023-05-04T01:54:17.556Z,616.00
2023-05-04T01:55:17.605Z,618.00
2023-05-04T01:56:17.682Z,620.00
2023-05-04T01:57:17.706Z,617.00
2023-05-04T01:58:17.791Z,619.00
2023-05-04T01:59:17.786Z,618.00
2023-05-04T02:00:17.879Z,621.00
2023-05-04T02:01:17.971Z,617.00
2023-05-04T02:02:17.992Z,619.00
2023-05-04T02:03:18.118Z,621.00
2023-05-04T02:04:18.100Z,623.00
2023-05-04T02:05:18.136Z,620.00
2023-05-04T02:06:18.258Z,618.00
2023-05-04T02:07:18.272Z,622.00
2023-05-04T02:08:18.377Z,614.00
2023-05-04T02:09:18.371Z,617.00
2023-05-04T02:10:18.483Z,621.00
2023-05-04T02:11:18.528Z,619.00
2023-05-04T02:12:18.545Z,618.00
2023-05-04T02:13:18.632Z,619.00
2023-05-04T02:14:18.751Z,620.00
2023-05-04T02:15:18.715Z,621.00
2023-05-04T02:16:18.881Z,624.00
2023-05-04T02:17:18.830Z,619.00
2023-05-04T02:18:18.882Z,624.00
2023-05-04T02:19:18.940Z,620.00
2023-05-04T02:20:19.024Z,624.00
2023-05-04T02:21:19.073Z,625.00
2023-05-04T02:22:19.098Z,619.00
2023-05-04T02:23:19.187Z,627.00
2023-05-04T02:24:19.313Z,626.00
2023-05-04T02:25:19.266Z,613.00
2023-05-04T02:26:19.375Z,616.00
2023-05-04T02:27:19.425Z,622.00
2023-05-04T02:28:19.456Z,612.00
2023-05-04T02:29:19.525Z,615.00
2023-05-04T02:30:19.602Z,617.00
2023-05-04T02:31:19.746Z,618.00
2023-05-04T02:32:19.856Z,608.00
2023-05-04T02:33:19.768Z,603.00
2023-05-04T02:34:19.837Z,611.00
2023-05-04T02:35:19.917Z,612.00
2023-05-04T02:36:19.983Z,608.00
2023-05-04T02:37:20.041Z,612.00
2023-05-04T02:38:20.138Z,612.00
2023-05-04T02:39:20.168Z,607.00
2023-05-04T02:40:20.246Z,611.00
2023-05-04T02:41:20.262Z,601.00
2023-05-04T02:42:20.324Z,612.00
2023-05-04T02:43:20.370Z,607.00
2023-05-04T02:44:20.452Z,611.00
2023-05-04T02:45:20.569Z,606.00
2023-05-04T02:46:20.606Z,607.00
2023-05-04T02:47:20.702Z,602.00
2023-05-04T02:48:20.688Z,598.00
2023-05-04T02:49:20.692Z,599.00
2023-05-04T02:50:20.759Z,601.00
2023-05-04T02:51:20.859Z,600.00
2023-05-04T02:52:20.928Z,599.00
2023-05-04T02:53:20.935Z,597.00
2023-05-04T02:54:21.051Z,597.00
2023-05-04T02:55:21.052Z,595.00
2023-05-04T02:56:21.111Z,599.00
2023-05-04T02:57:21.164Z,594.00
2023-05-04T02:58:21.203Z,595.00
2023-05-04T02:59:21.206Z,599.00
2023-05-04T03:00:21.287Z,596.00
2023-05-04T03:01:21.315Z,597.00
2023-05-04T03:02:21.355Z,592.00
2023-05-04T03:03:21.334Z,594.00
2023-05-04T03:04:21.522Z,597.00
2023-05-04T03:05:21.415Z,588.00
2023-05-04T03:06:21.445Z,587.00
2023-05-04T03:07:21.460Z,589.00
2023-05-04T03:08:21.475Z,585.00
2023-05-04T03:09:21.488Z,586.00
2023-05-04T03:10:21.518Z,583.00
2023-05-04T03:11:21.503Z,580.00
2023-05-04T03:12:21.530Z,581.00
2023-05-04T03:13:21.600Z,578.00
2023-05-04T03:14:21.638Z,581.00
2023-05-04T03:15:21.630Z,584.00
2023-05-04T03:16:21.664Z,580.00
2023-05-04T03:17:21.691Z,582.00
2023-05-04T03:18:21.730Z,581.00
2023-05-04T03:19:21.784Z,583.00
2023-05-04T03:20:21.789Z,588.00
2023-05-04T03:21:21.798Z,585.00
2023-05-04T03:22:21.852Z,583.00
2023-05-04T03:23:21.897Z,582.00
2023-05-04T03:24:21.912Z,586.00
2023-05-04T03:25:21.939Z,584.00
2023-05-04T03:26:21.899Z,585.00
2023-05-04T03:27:21.948Z,587.00
2023-05-04T03:28:21.948Z,585.00
2023-05-04T03:29:22.043Z,587.00
2023-05-04T03:30:22.057Z,586.00
2023-05-04T03:31:22.116Z,588.00
2023-05-04T03:32:22.121Z,591.00
2023-05-04T03:33:22.090Z,584.00
2023-05-04T03:34:22.066Z,586.00
2023-05-04T03:35:24.868Z,594.00
2023-05-04T03:36:22.148Z,597.00
2023-05-04T03:37:22.061Z,600.00
2023-05-04T03:38:22.167Z,598.00
2023-05-04T03:39:22.026Z,597.00
2023-05-04T03:40:22.021Z,595.00
2023-05-04T03:41:22.043Z,592.00
2023-05-04T03:42:22.017Z,595.00
2023-05-04T03:43:22.006Z,594.00
2023-05-04T03:44:22.049Z,599.00
2023-05-04T03:45:22.011Z,596.00
2023-05-04T03:46:22.058Z,603.00
2023-05-04T03:47:22.003Z,601.00
2023-05-04T03:48:21.970Z,606.00
2023-05-04T03:49:21.951Z,605.00
2023-05-04T03:50:21.970Z,603.00
2023-05-04T03:51:21.963Z,604.00
2023-05-04T03:52:21.960Z,605.00
2023-05-04T03:53:21.951Z,613.00
2023-05-04T03:54:21.921Z,607.00
2023-05-04T03:55:21.974Z,605.00
2023-05-04T03:56:21.934Z,612.00
2023-05-04T03:57:21.933Z,615.00
2023-05-04T03:58:21.924Z,613.00
2023-05-04T03:59:21.903Z,612.00
2023-05-04T04:00:21.909Z,622.00
2023-05-04T04:01:21.860Z,618.00
2023-05-04T04:02:21.976Z,623.00
2023-05-04T04:03:22.242Z,629.00
2023-05-04T04:04:21.904Z,636.00
2023-05-04T04:05:21.885Z,637.00
2023-05-04T04:06:21.868Z,640.00
2023-05-04T04:07:21.853Z,631.00
2023-05-04T04:08:21.866Z,631.00
2023-05-04T04:09:21.852Z,630.00
2023-05-04T04:10:21.838Z,626.00
2023-05-04T04:11:21.834Z,630.00
2023-05-04T04:12:21.843Z,627.00
2023-05-04T04:13:21.860Z,630.00
2023-05-04T04:14:21.797Z,628.00
2023-05-04T04:15:21.810Z,626.00
2023-05-04T04:16:21.820Z,628.00
2023-05-04T04:17:21.802Z,629.00
2023-05-04T04:18:21.769Z,625.00
2023-05-04T04:19:21.777Z,625.00
2023-05-04T04:20:21.768Z,623.00
2023-05-04T04:21:21.780Z,624.00
2023-05-04T04:22:21.742Z,627.00
2023-05-04T04:23:21.842Z,623.00
2023-05-04T04:24:21.741Z,625.00
2023-05-04T04:25:21.754Z,623.00
2023-05-04T04:26:21.708Z,620.00
2023-05-04T04:27:21.713Z,622.00
2023-05-04T04:28:21.720Z,621.00
2023-05-04T04:29:21.702Z,617.00
2023-05-04T04:30:21.763Z,623.00
2023-05-04T04:31:21.776Z,625.00
2023-05-04T04:32:21.735Z,627.00
2023-05-04T04:33:21.700Z,627.00
2023-05-04T04:34:21.697Z,631.00
2023-05-04T04:35:21.728Z,637.00
2023-05-04T04:36:21.815Z,640.00
2023-05-04T04:37:21.708Z,646.00
2023-05-04T04:38:21.726Z,647.00
2023-05-04T04:39:21.728Z,650.00
2023-05-04T04:40:21.706Z,654.00
2023-05-04T04:41:21.644Z,660.00
2023-05-04T04:42:21.715Z,664.00
2023-05-04T04:43:21.628Z,666.00
2023-05-04T04:44:21.628Z,674.00
2023-05-04T04:45:21.589Z,688.00
2023-05-04T04:46:21.642Z,683.00
2023-05-04T04:47:21.614Z,690.00
2023-05-04T04:48:21.616Z,688.00
2023-05-04T04:49:21.563Z,700.00
2023-05-04T04:50:21.574Z,712.00
2023-05-04T04:51:21.616Z,696.00
2023-05-04T04:52:21.559Z,705.00
2023-05-04T04:53:21.560Z,719.00
2023-05-04T04:54:21.534Z,710.00
2023-05-04T04:55:21.548Z,727.00
2023-05-04T04:56:21.597Z,746.00
2023-05-04T04:57:21.505Z,740.00
2023-05-04T04:58:21.514Z,736.00
2023-05-04T04:59:21.529Z,731.00
2023-05-04T05:00:21.503Z,730.00
2023-05-04T05:01:21.572Z,731.00
2023-05-04T05:02:21.502Z,725.00
2023-05-04T05:03:21.450Z,737.00
2023-05-04T05:04:21.486Z,747.00
2023-05-04T05:05:21.463Z,737.00
2023-05-04T05:06:21.445Z,739.00
2023-05-04T05:07:21.465Z,721.00
2023-05-04T05:08:21.432Z,741.00
2023-05-04T05:09:21.450Z,726.00
2023-05-04T05:10:21.451Z,749.00
2023-05-04T05:11:21.427Z,736.00
2023-05-04T05:12:21.457Z,732.00
2023-05-04T05:13:21.518Z,737.00
2023-05-04T05:14:21.436Z,745.00
2023-05-04T05:15:21.396Z,729.00
2023-05-04T05:16:21.487Z,724.00
2023-05-04T05:17:21.408Z,724.00
2023-05-04T05:18:21.408Z,734.00
2023-05-04T05:19:21.356Z,728.00
2023-05-04T05:20:21.412Z,747.00
2023-05-04T05:21:21.383Z,740.00
2023-05-04T05:22:21.361Z,748.00
2023-05-04T05:23:21.374Z,750.00
2023-05-04T05:24:21.341Z,753.00
2023-05-04T05:25:21.355Z,748.00
2023-05-04T05:26:21.323Z,772.00
2023-05-04T05:27:21.323Z,761.00
2023-05-04T05:28:21.312Z,748.00
2023-05-04T05:29:21.320Z,762.00
2023-05-04T05:30:21.317Z,762.00
2023-05-04T05:31:21.327Z,752.00
2023-05-04T05:32:21.277Z,754.00
2023-05-04T05:33:21.305Z,769.00
2023-05-04T05:34:21.265Z,763.00
2023-05-04T05:35:21.273Z,745.00
2023-05-04T05:36:21.250Z,755.00
2023-05-04T05:37:21.283Z,751.00
2023-05-04T05:38:21.273Z,738.00
2023-05-04T05:39:21.290Z,729.00
2023-05-04T05:40:21.299Z,739.00
2023-05-04T05:41:21.352Z,753.00
2023-05-04T05:42:21.436Z,782.00
2023-05-04T05:43:21.371Z,767.00
2023-05-04T05:44:21.485Z,760.00
2023-05-04T05:45:21.560Z,754.00
2023-05-04T05:46:21.530Z,788.00
2023-05-04T05:47:21.547Z,801.00
2023-05-04T05:48:22.027Z,841.00
2023-05-04T05:49:21.620Z,865.00
2023-05-04T05:50:21.628Z,873.00
2023-05-04T05:51:21.655Z,885.00
2023-05-04T05:52:21.740Z,939.00
2023-05-04T05:53:21.746Z,1019.00
2023-05-04T05:54:21.748Z,1068.00
2023-05-04T05:55:21.713Z,1138.00
2023-05-04T05:56:21.776Z,1192.00
2023-05-04T05:57:21.797Z,1218.00
2023-05-04T05:58:21.816Z,1253.00
2023-05-04T05:59:21.806Z,1294.00
2023-05-04T06:00:21.802Z,1305.00
2023-05-04T06:01:21.810Z,1334.00
2023-05-04T06:02:21.930Z,1345.00
2023-05-04T06:03:21.993Z,1370.00
2023-05-04T06:04:22.027Z,1388.00
2023-05-04T06:05:22.012Z,1420.00
2023-05-04T06:06:22.089Z,1422.00
2023-05-04T06:07:22.151Z,1411.00
2023-05-04T06:08:22.207Z,1532.00
2023-05-04T06:09:22.284Z,1626.00
2023-05-04T06:10:22.273Z,1812.00
2023-05-04T06:11:22.538Z,1794.00
2023-05-04T06:12:22.344Z,1732.00
2023-05-04T06:13:22.539Z,1730.00
2023-05-04T06:14:22.479Z,1735.00
2023-05-04T06:15:22.578Z,1697.00
2023-05-04T06:16:22.585Z,1695.00
2023-05-04T06:17:22.703Z,1692.00
2023-05-04T06:18:22.672Z,1689.00
2023-05-04T06:19:22.652Z,1676.00
2023-05-04T06:20:22.685Z,1672.00
2023-05-04T06:21:22.775Z,1679.00
2023-05-04T06:22:22.806Z,1693.00
2023-05-04T06:23:22.836Z,1683.00
2023-05-04T06:24:23.112Z,1677.00
2023-05-04T06:25:22.899Z,1665.00
2023-05-04T06:26:22.925Z,1675.00
2023-05-04T06:27:24.250Z,1663.00
2023-05-04T06:28:23.043Z,1671.00
2023-05-04T06:29:23.016Z,1683.00
2023-05-04T06:30:23.049Z,1660.00
2023-05-04T06:31:23.082Z,1664.00
2023-05-04T06:32:23.103Z,1655.00
2023-05-04T06:33:23.152Z,1641.00
2023-05-04T06:34:23.136Z,1627.00
2023-05-04T06:35:23.166Z,1607.00
2023-05-04T06:36:23.156Z,1598.00
2023-05-04T06:37:23.178Z,1594.00
2023-05-04T06:38:23.209Z,1583.00
2023-05-04T06:39:23.224Z,1564.00
2023-05-04T06:40:23.337Z,1553.00
2023-05-04T06:41:23.284Z,1526.00
2023-05-04T06:42:23.289Z,1447.00
2023-05-04T06:43:23.332Z,1410.00
2023-05-04T06:44:23.589Z,1435.00
2023-05-04T06:45:23.447Z,1433.00
2023-05-04T06:46:23.589Z,1441.00
2023-05-04T06:47:23.547Z,1435.00
2023-05-04T06:48:23.545Z,1417.00
2023-05-04T06:49:23.535Z,1425.00
2023-05-04T06:50:23.611Z,1435.00
2023-05-04T06:51:23.647Z,1420.00
2023-05-04T06:52:24.044Z,1415.00
2023-05-04T06:53:24.092Z,1426.00
2023-05-04T06:54:23.707Z,1416.00
2023-05-04T06:55:23.707Z,1425.00
2023-05-04T06:56:23.714Z,1413.00
2023-05-04T06:57:23.727Z,1418.00
2023-05-04T06:58:23.730Z,1434.00
2023-05-04T06:59:23.778Z,1447.00
2023-05-04T07:00:24.073Z,1451.00
2023-05-04T07:01:23.836Z,1426.00
2023-05-04T07:02:23.834Z,1424.00
2023-05-04T07:03:23.810Z,1396.00
2023-05-04T07:04:23.788Z,1400.00
2023-05-04T07:05:24.096Z,1359.00
2023-05-04T07:06:23.780Z,1347.00
2023-05-04T07:07:23.817Z,1339.00
2023-05-04T07:08:23.803Z,1309.00
2023-05-04T07:09:23.788Z,1314.00
2023-05-04T07:10:23.803Z,1300.00
2023-05-04T07:11:23.812Z,1289.00
2023-05-04T07:12:23.772Z,1290.00
2023-05-04T07:13:23.755Z,1285.00
2023-05-04T07:14:23.792Z,1284.00
2023-05-04T07:15:23.823Z,1290.00
2023-05-04T07:16:23.802Z,1262.00
2023-05-04T07:17:23.870Z,1274.00
2023-05-04T07:18:23.770Z,1209.00
2023-05-04T07:19:23.775Z,1220.00
2023-05-04T07:20:26.032Z,1202.00
2023-05-04T07:21:28.277Z,1205.00
2023-05-04T07:22:24.980Z,1206.00
2023-05-04T07:23:23.987Z,1204.00
2023-05-04T07:24:23.949Z,1173.00
2023-05-04T07:25:24.107Z,1127.00
2023-05-04T07:26:23.964Z,1087.00
2023-05-04T07:27:23.964Z,1074.00
2023-05-04T07:28:23.933Z,1056.00
2023-05-04T07:29:23.916Z,1076.00
2023-05-04T07:30:24.051Z,1051.00
2023-05-04T07:31:23.931Z,1036.00
2023-05-04T07:32:23.968Z,1003.00
2023-05-04T07:33:23.984Z,965.00
2023-05-04T07:34:34.004Z,866.00
2023-05-04T07:35:25.160Z,814.00
2023-05-04T07:36:23.933Z,792.00
2023-05-04T07:37:23.954Z,705.00
2023-05-04T07:38:23.919Z,692.00
2023-05-04T07:39:23.886Z,668.00
2023-05-04T07:40:23.890Z,656.00
2023-05-04T07:41:24.080Z,659.00
2023-05-04T07:42:23.899Z,665.00
2023-05-04T07:43:23.851Z,671.00
2023-05-04T07:44:23.916Z,664.00
2023-05-04T07:45:23.875Z,661.00
2023-05-04T07:46:23.957Z,653.00
2023-05-04T07:47:24.699Z,639.00
2023-05-04T07:48:26.196Z,631.00
2023-05-04T07:49:23.843Z,634.00
2023-05-04T07:50:24.124Z,639.00
2023-05-04T07:51:24.086Z,639.00
2023-05-04T07:52:23.827Z,621.00
2023-05-04T07:53:23.791Z,622.00
2023-05-04T07:54:23.829Z,625.00
2023-05-04T07:55:23.849Z,622.00
2023-05-04T07:56:23.792Z,625.00
2023-05-04T07:57:23.818Z,615.00
2023-05-04T07:58:23.810Z,623.00
2023-05-04T07:59:23.794Z,613.00
2023-05-04T08:00:23.795Z,605.00
2023-05-04T08:01:23.807Z,605.00
2023-05-04T08:02:23.816Z,608.00
2023-05-04T08:03:23.875Z,613.00
2023-05-04T08:04:23.746Z,629.00
2023-05-04T08:05:24.060Z,656.00
2023-05-04T08:06:24.074Z,701.00
2023-05-04T08:07:23.747Z,696.00
2023-05-04T08:08:23.745Z,696.00
2023-05-04T08:09:23.717Z,662.00
2023-05-04T08:10:23.722Z,666.00
2023-05-04T08:11:23.679Z,685.00
2023-05-04T08:12:23.699Z,697.00
2023-05-04T08:13:23.662Z,731.00
2023-05-04T08:14:23.744Z,773.00
2023-05-04T08:15:23.658Z,788.00
2023-05-04T08:16:23.863Z,802.00
2023-05-04T08:17:23.674Z,847.00
2023-05-04T08:18:23.632Z,864.00
2023-05-04T08:19:23.792Z,900.00
2023-05-04T08:20:23.916Z,910.00
2023-05-04T08:21:23.609Z,941.00
2023-05-04T08:22:23.634Z,943.00
2023-05-04T08:23:23.610Z,891.00
2023-05-04T08:24:23.603Z,860.00
2023-05-04T08:25:23.591Z,869.00
2023-05-04T08:26:23.654Z,876.00
2023-05-04T08:27:23.641Z,830.00
2023-05-04T08:28:23.633Z,716.00
2023-05-04T08:29:23.616Z,698.00
2023-05-04T08:30:23.738Z,711.00
2023-05-04T08:31:23.703Z,678.00
2023-05-04T08:32:23.613Z,655.00
2023-05-04T08:33:23.581Z,607.00
2023-05-04T08:34:23.674Z,586.00
2023-05-04T08:35:23.514Z,561.00
2023-05-04T08:36:23.632Z,539.00
2023-05-04T08:37:23.499Z,514.00
2023-05-04T08:38:23.563Z,500.00
2023-05-04T08:39:23.500Z,501.00
2023-05-04T08:40:23.544Z,500.00
2023-05-04T08:41:23.518Z,500.00
2023-05-04T08:42:23.534Z,500.00
2023-05-04T08:43:23.657Z,499.00
2023-05-04T08:44:24.075Z,511.00
2023-05-04T08:45:23.672Z,482.00
2023-05-04T08:46:23.742Z,540.00
2023-05-04T08:47:23.811Z,565.00
2023-05-04T08:48:23.823Z,580.00
2023-05-04T08:49:23.869Z,592.00
2023-05-04T08:50:23.857Z,582.00
2023-05-04T08:51:23.937Z,577.00
2023-05-04T08:52:23.973Z,590.00
2023-05-04T08:53:24.161Z,595.00
2023-05-04T08:54:24.013Z,603.00
2023-05-04T08:55:24.030Z,613.00
2023-05-04T08:56:24.043Z,588.00
2023-05-04T08:57:24.109Z,580.00
2023-05-04T08:58:24.056Z,581.00
2023-05-04T08:59:24.099Z,587.00
2023-05-04T09:00:24.231Z,575.00
2023-05-04T09:01:24.170Z,566.00
2023-05-04T09:02:24.207Z,568.00
2023-05-04T09:03:24.222Z,582.00
2023-05-04T09:04:24.121Z,597.00
2023-05-04T09:05:24.106Z,618.00
2023-05-04T09:06:24.093Z,620.00
2023-05-04T09:07:24.073Z,640.00
2023-05-04T09:08:24.115Z,639.00
2023-05-04T09:09:24.090Z,637.00
2023-05-04T09:10:24.110Z,654.00
2023-05-04T09:11:24.086Z,657.00
2023-05-04T09:12:24.622Z,678.00
2023-05-04T09:13:24.127Z,668.00
2023-05-04T09:14:24.637Z,666.00
2023-05-04T09:15:24.152Z,660.00
2023-05-04T09:16:24.232Z,657.00
2023-05-04T09:17:24.214Z,694.00
2023-05-04T09:18:24.287Z,688.00
2023-05-04T09:19:24.339Z,701.00
2023-05-04T09:20:24.382Z,682.00
2023-05-04T09:21:24.431Z,635.00
2023-05-04T09:22:24.569Z,629.00
2023-05-04T09:23:24.573Z,616.00
2023-05-04T09:24:24.599Z,620.00
2023-05-04T09:25:24.686Z,619.00
2023-05-04T09:26:24.717Z,617.00
2023-05-04T09:27:24.788Z,609.00
2023-05-04T09:28:25.768Z,610.00
2023-05-04T09:29:24.916Z,612.00
2023-05-04T09:30:25.002Z,613.00
2023-05-04T09:31:25.153Z,633.00
2023-05-04T09:32:25.137Z,630.00
2023-05-04T09:33:25.111Z,659.00
2023-05-04T09:34:25.194Z,715.00
2023-05-04T09:35:32.388Z,707.00
2023-05-04T09:36:26.265Z,708.00
2023-05-04T09:37:25.259Z,658.00
2023-05-04T09:38:25.248Z,648.00
2023-05-04T09:39:25.264Z,639.00
2023-05-04T09:40:25.222Z,611.00
2023-05-04T09:41:25.637Z,574.00
2023-05-04T09:42:25.206Z,543.00
2023-05-04T09:43:25.249Z,510.00
2023-05-04T09:44:26.882Z,503.00
2023-05-04T09:45:25.221Z,500.00
2023-05-04T09:46:25.661Z,500.00
2023-05-04T09:47:25.216Z,500.00
2023-05-04T09:48:25.173Z,497.00
2023-05-04T09:49:25.299Z,502.00
2023-05-04T09:50:25.188Z,501.00
2023-05-04T09:51:25.137Z,500.00
2023-05-04T09:52:25.639Z,500.00
2023-05-04T09:53:25.225Z,500.00
2023-05-04T09:54:25.148Z,499.00
2023-05-04T09:55:25.117Z,500.00
2023-05-04T09:56:25.131Z,500.00
2023-05-04T09:57:25.092Z,500.00
2023-05-04T09:58:25.097Z,501.00
2023-05-04T09:59:25.072Z,503.00
2023-05-04T10:00:25.101Z,499.00
2023-05-04T10:01:25.107Z,505.00
2023-05-04T10:02:25.100Z,500.00
2023-05-04T10:03:25.125Z,508.00
2023-05-04T10:04:25.052Z,500.00
2023-05-04T10:05:25.079Z,500.00
2023-05-04T10:06:25.022Z,500.00
2023-05-04T10:07:25.041Z,500.00
2023-05-04T10:08:25.007Z,504.00
2023-05-04T10:09:25.019Z,510.00
2023-05-04T10:10:25.015Z,502.00
2023-05-04T10:11:24.993Z,505.00
2023-05-04T10:12:24.979Z,533.00
2023-05-04T10:13:24.998Z,551.00
2023-05-04T10:14:24.986Z,570.00
2023-05-04T10:15:24.972Z,596.00
2023-05-04T10:16:25.025Z,609.00
2023-05-04T10:17:24.975Z,653.00
2023-05-04T10:18:24.963Z,674.00
2023-05-04T10:19:24.950Z,688.00
2023-05-04T10:20:24.930Z,661.00
2023-05-04T10:21:24.913Z,659.00
2023-05-04T10:22:24.923Z,773.00
2023-05-04T10:23:24.896Z,787.00
2023-05-04T10:24:24.926Z,879.00
2023-05-04T10:25:24.955Z,940.00
2023-05-04T10:26:24.899Z,986.00
2023-05-04T10:27:24.898Z,1058.00
2023-05-04T10:28:24.889Z,1053.00
2023-05-04T10:29:24.902Z,1087.00
2023-05-04T10:30:24.890Z,1116.00
2023-05-04T10:31:24.901Z,1086.00
2023-05-04T10:32:24.873Z,1109.00
2023-05-04T10:33:24.871Z,1172.00
2023-05-04T10:34:24.848Z,1226.00
2023-05-04T10:35:24.846Z,1221.00
2023-05-04T10:36:24.836Z,1318.00
2023-05-04T10:37:24.820Z,1312.00
2023-05-04T10:38:25.166Z,1333.00
2023-05-04T10:39:24.851Z,1358.00
2023-05-04T10:40:24.844Z,1417.00
2023-05-04T10:41:24.787Z,1407.00
2023-05-04T10:42:24.796Z,1398.00
2023-05-04T10:43:24.802Z,1430.00
2023-05-04T10:44:24.776Z,1496.00
2023-05-04T10:45:24.816Z,1528.00
2023-05-04T10:46:24.743Z,1497.00
2023-05-04T10:47:24.857Z,1454.00
2023-05-04T10:48:24.765Z,1543.00
2023-05-04T10:49:24.724Z,1520.00
2023-05-04T10:50:24.709Z,1601.00
2023-05-04T10:51:30.380Z,1591.00
2023-05-04T10:52:25.709Z,1593.00
2023-05-04T10:53:24.701Z,1594.00
2023-05-04T10:54:24.728Z,1591.00
2023-05-04T10:55:24.748Z,1600.00
2023-05-04T10:56:24.683Z,1663.00
2023-05-04T10:57:24.729Z,1633.00
2023-05-04T10:58:24.656Z,1647.00
2023-05-04T10:59:24.681Z,1617.00
2023-05-04T11:00:24.675Z,1668.00
2023-05-04T11:01:24.688Z,1729.00
2023-05-04T11:02:24.689Z,1726.00
2023-05-04T11:03:24.753Z,1718.00
2023-05-04T11:04:24.637Z,1684.00
2023-05-04T11:05:24.619Z,1675.00
2023-05-04T11:06:24.741Z,1745.00
2023-05-04T11:07:24.630Z,1742.00
2023-05-04T11:08:24.611Z,1770.00
2023-05-04T11:09:24.636Z,1749.00
2023-05-04T11:10:24.603Z,1774.00
2023-05-04T11:11:24.583Z,1772.00
2023-05-04T11:12:24.604Z,1807.00
2023-05-04T11:13:24.676Z,1811.00
2023-05-04T11:14:24.675Z,1828.00
2023-05-04T11:15:24.638Z,1829.00
2023-05-04T11:16:24.580Z,1817.00
2023-05-04T11:17:28.465Z,1826.00
2023-05-04T11:18:24.669Z,1828.00
2023-05-04T11:19:24.669Z,1831.00
2023-05-04T11:20:24.691Z,1838.00
2023-05-04T11:21:24.521Z,1843.00
2023-05-04T11:22:24.523Z,1871.00
2023-05-04T11:23:24.702Z,1892.00
2023-05-04T11:24:24.666Z,1877.00
2023-05-04T11:25:24.495Z,1866.00
2023-05-04T11:26:24.514Z,1893.00
2023-05-04T11:27:24.525Z,1903.00
2023-05-04T11:28:24.454Z,1901.00
2023-05-04T11:29:24.460Z,1885.00
2023-05-04T11:30:24.474Z,1817.00
2023-05-04T11:31:24.481Z,1853.00
2023-05-04T11:32:24.501Z,1827.00
2023-05-04T11:33:24.429Z,1798.00
2023-05-04T11:34:24.445Z,1774.00
2023-05-04T11:35:24.446Z,1838.00
2023-05-04T11:36:24.415Z,1816.00
2023-05-04T11:37:24.411Z,1843.00
2023-05-04T11:38:24.427Z,1827.00
2023-05-04T11:39:24.388Z,1853.00
2023-05-04T11:40:24.407Z,1850.00
2023-05-04T11:41:24.405Z,1832.00
2023-05-04T11:42:24.402Z,1838.00
2023-05-04T11:43:24.402Z,1849.00
2023-05-04T11:44:24.380Z,1812.00
2023-05-04T11:45:24.383Z,1782.00
2023-05-04T11:46:24.494Z,1788.00
2023-05-04T11:47:24.364Z,1774.00
2023-05-04T11:48:24.351Z,1760.00
2023-05-04T11:49:24.338Z,1786.00
2023-05-04T11:50:24.369Z,1761.00
2023-05-04T11:51:24.379Z,1826.00
2023-05-04T11:52:24.379Z,1800.00
2023-05-04T11:53:24.368Z,1774.00
2023-05-04T11:54:24.362Z,1774.00
2023-05-04T11:55:24.280Z,1832.00
2023-05-04T11:56:24.380Z,1841.00
2023-05-04T11:57:24.310Z,1794.00
2023-05-04T11:58:24.287Z,1748.00
2023-05-04T11:59:24.293Z,1812.00
2023-05-04T12:00:24.454Z,1797.00
2023-05-04T12:01:24.268Z,1749.00
2023-05-04T12:02:24.312Z,1758.00
2023-05-04T12:03:25.935Z,1748.00
2023-05-04T12:04:24.345Z,1749.00
2023-05-04T12:05:24.307Z,1713.00
2023-05-04T12:06:24.247Z,1683.00
2023-05-04T12:07:24.230Z,1663.00
2023-05-04T12:08:24.255Z,1640.00
2023-05-04T12:09:24.242Z,1659.00
2023-05-04T12:10:24.189Z,1635.00
2023-05-04T12:11:24.203Z,1642.00
2023-05-04T12:12:24.211Z,1626.00
2023-05-04T12:13:24.190Z,1616.00
2023-05-04T12:14:24.259Z,1615.00
2023-05-04T12:15:24.330Z,1606.00
2023-05-04T12:16:24.203Z,1601.00
2023-05-04T12:17:24.282Z,1601.00
2023-05-04T12:18:24.143Z,1603.00
2023-05-04T12:19:24.154Z,1594.00
2023-05-04T12:20:24.138Z,1581.00
2023-05-04T12:21:24.136Z,1589.00